Archival Weather

Chicago O'Hare International

Chicago, Illinois (KORD)

Report from: Saturday, November 5, 2022 5:10 PM CDT
Current time: Saturday, March 2, 2024 3:02 AM CST

Current weather – Weather history – Daily summaries
Weather forecast

Temperature10.0°C (50.0°F)
Wind chill5.9°C (42.7°F)
Dew point3.9°C (39.0°F)
Winds 22 kts (11.3 m/s, 25.3 mph) South-Southwest (210°)
Wind gusts 39 kts (20.1 m/s, 44.9 mph)
Peak wind 39 kts (20.1 m/s, 44.9 mph) South-Southwest (200°) at 22:05
Visibility10 mi. (16.1 km)
Clouds Ceiling: Broken clouds 2,800 ft. (853 m)
Overcast 3,500 ft. (1,067 m)
Altimeter29.55 in.Hg (1001 mB)
Relative humidity66 %
Density altitude-50 ft. (-15 m)
Remarks Automated weather observing station with precipitation discriminator
Flight conditions Marginal Visual Meteorological Conditions
Raw dataKORD 052210Z 21022G39KT 10SM BKN028 OVC035 10/04 A2955 RMK AO2 PK WND 20039/2205 T01000039
An error has occurred. This application may no longer respond until reloaded. Reload 🗙